Time;durP1;ratioP1;P1;durP2;ratioP2;P2;SDS_P1;SDS_P2;PMS_P1;PMS_P2;Temp;Humidity;BMP_temperature;BMP_pressure;BME280_temperature;BME280_humidity;BME280_pressure;Samples;Min_cycle;Max_cycle;Signal;HPM_P1;HPM_P2
2023/10/08 00:01:12;;;;;;;6.88;2.90;;;17.30;45.80;;;18.54;38.50;98419.56;5033201;28;20042;-43
2023/10/08 00:03:41;;;;;;;4.75;3.15;;;17.30;45.70;;;18.57;38.48;98424.53;5032669;28;20416;-45
2023/10/08 00:06:13;;;;;;;5.60;2.60;;;17.30;45.70;;;18.59;38.36;98419.78;5032717;28;20057;-47
2023/10/08 00:08:40;;;;;;;8.20;2.97;;;17.30;46.00;;;18.58;38.44;98421.66;5032568;28;20038;-46
2023/10/08 00:11:10;;;;;;;6.13;2.65;;;17.30;45.80;;;18.59;38.19;98428.75;5032749;28;20053;-45
2023/10/08 00:13:41;;;;;;;5.25;3.05;;;17.30;45.60;;;18.64;38.41;98431.66;5032017;28;20416;-49
2023/10/08 00:16:15;;;;;;;7.45;2.97;;;17.30;45.90;;;18.69;38.28;98425.72;5031569;28;20056;-49
2023/10/08 00:18:50;;;;;;;6.07;3.10;;;17.30;45.70;;;18.73;38.37;98432.38;5032336;28;20042;-48
2023/10/08 00:21:27;;;;;;;5.32;2.92;;;17.30;45.80;;;18.76;38.15;98429.28;5032751;28;20050;-48
2023/10/08 00:23:57;;;;;;;5.85;2.80;;;17.30;45.60;;;18.79;38.21;98422.69;5024269;28;20057;-49
2023/10/08 00:26:27;;;;;;;5.78;2.58;;;17.30;45.90;;;18.81;38.28;98421.47;5032286;28;20145;-44
2023/10/08 00:28:59;;;;;;;4.35;2.63;;;17.30;46.60;;;18.81;38.42;98412.56;5031453;28;20434;-45
2023/10/08 00:31:32;;;;;;;5.53;3.03;;;17.30;46.30;;;18.80;38.56;98409.00;5031246;28;20057;-44
2023/10/08 00:33:59;;;;;;;10.05;3.08;;;17.30;46.20;;;18.78;38.34;98413.72;5030515;28;20037;-45
2023/10/08 00:36:27;;;;;;;4.95;2.33;;;17.20;46.40;;;18.78;38.23;98411.03;5030400;28;20406;-42
2023/10/08 00:38:59;;;;;;;6.00;2.78;;;17.20;46.30;;;18.79;38.28;98414.59;5030610;28;20054;-43
2023/10/08 00:41:32;;;;;;;5.60;3.13;;;17.20;47.20;;;18.75;38.33;98411.44;5032277;28;20045;-49
2023/10/08 00:44:00;;;;;;;7.70;3.03;;;17.10;46.60;;;18.73;38.52;98409.94;5032527;28;20040;-46
2023/10/08 00:46:35;;;;;;;4.63;2.88;;;17.10;47.10;;;18.72;38.64;98403.72;5030709;28;20038;-45
2023/10/08 00:49:25;;;;;;;6.00;2.70;;;17.10;47.30;;;18.70;38.89;98403.09;5031248;28;20060;-42
2023/10/08 00:52:26;;;;;;;4.00;2.60;;;17.10;47.80;;;18.68;38.92;98407.84;5009548;28;20056;-47
2023/10/08 00:57:29;;;;;;;5.28;3.38;;;17.00;47.90;;;18.63;39.08;98392.25;5030595;28;20556;-46
2023/10/08 01:00:00;;;;;;;5.63;2.70;;;16.90;48.20;;;18.60;39.09;98395.34;5007112;28;20501;-42
2023/10/08 01:02:44;;;;;;;4.13;2.67;;;16.90;48.10;;;18.58;39.22;98393.88;5030073;28;20045;-47
2023/10/08 01:05:17;;;;;;;5.53;2.67;;;16.90;48.50;;;18.54;38.87;98390.72;5030267;28;20060;-46
2023/10/08 01:07:50;;;;;;;4.85;2.85;;;16.90;48.00;;;18.52;39.11;98389.25;5014109;28;20277;-46
2023/10/08 01:10:20;;;;;;;4.40;2.00;;;16.90;48.20;;;18.52;39.00;98391.97;5030566;28;20053;-46
2023/10/08 01:13:03;;;;;;;4.70;2.35;;;16.90;47.90;;;18.49;39.08;98387.78;5029787;28;20053;-43
2023/10/08 01:15:35;;;;;;;5.28;2.40;;;16.90;47.90;;;18.47;38.95;98390.66;5029993;28;20071;-47
2023/10/08 01:18:08;;;;;;;6.88;3.03;;;16.80;47.80;;;18.46;39.07;98393.56;5029813;28;20402;-46
2023/10/08 01:23:10;;;;;;;6.25;2.75;;;16.80;47.60;;;18.45;39.11;98392.72;5031335;28;20045;-45
2023/10/08 01:25:39;;;;;;;4.65;2.60;;;16.90;47.70;;;18.45;39.23;98398.09;5029093;28;20053;-46
2023/10/08 01:28:25;;;;;;;4.95;2.90;;;16.80;47.80;;;18.45;39.14;98391.88;5031129;28;20052;-43
2023/10/08 01:30:54;;;;;;;4.97;2.25;;;16.90;48.00;;;18.45;39.07;98394.59;5030387;28;20049;-44
2023/10/08 01:33:23;;;;;;;5.32;2.70;;;16.80;47.70;;;18.43;39.39;98399.34;5029984;28;20049;-44
2023/10/08 01:35:51;;;;;;;4.75;2.85;;;16.80;48.30;;;18.39;39.57;98398.88;5029440;28;20041;-46
2023/10/08 01:38:23;;;;;;;5.30;2.50;;;16.80;48.60;;;18.37;39.60;98392.84;5029192;28;20057;-41
2023/10/08 01:40:51;;;;;;;4.90;2.75;;;16.70;48.90;;;18.31;39.74;98401.72;5029320;28;20052;-44
2023/10/08 01:43:20;;;;;;;4.88;2.53;;;16.60;49.60;;;18.24;39.91;98393.56;5031182;28;20060;-46
2023/10/08 01:45:50;;;;;;;6.40;3.50;;;16.50;49.70;;;18.19;40.06;98404.09;5031021;28;20056;-45
2023/10/08 01:48:37;;;;;;;4.15;2.65;;;16.50;50.20;;;18.12;40.26;98400.47;5029283;28;20057;-45
2023/10/08 01:51:19;;;;;;;3.75;2.17;;;16.40;50.20;;;18.07;40.36;98402.94;5023551;28;20048;-44
2023/10/08 01:53:47;;;;;;;4.63;2.80;;;16.30;50.60;;;18.01;40.57;98396.44;5029397;28;20057;-46
2023/10/08 01:56:15;;;;;;;8.30;3.25;;;16.20;51.20;;;17.94;40.67;98406.28;5029533;28;20049;-48
2023/10/08 01:58:43;;;;;;;4.93;2.70;;;16.10;51.40;;;17.87;41.00;98400.00;5028531;28;20401;-44
2023/10/08 02:01:12;;;;;;;7.05;2.72;;;16.10;52.10;;;17.82;40.99;98402.41;5029760;28;20432;-44
2023/10/08 02:03:41;;;;;;;4.18;2.03;;;16.00;52.20;;;17.78;41.15;98409.19;5029356;28;20076;-45
2023/10/08 02:06:09;;;;;;;4.65;3.50;;;15.90;52.40;;;17.75;41.13;98404.16;5029225;28;20045;-43
2023/10/08 02:08:37;;;;;;;5.55;3.17;;;15.90;52.20;;;17.67;41.33;98403.25;5028896;28;20054;-45
2023/10/08 02:11:05;;;;;;;6.95;2.75;;;15.90;53.00;;;17.65;41.46;98412.53;5029626;28;20056;-43
2023/10/08 02:13:34;;;;;;;5.07;2.20;;;15.80;52.60;;;17.59;41.53;98399.84;5030173;28;20112;-44
2023/10/08 02:16:02;;;;;;;5.95;2.67;;;15.80;53.00;;;17.54;41.69;98403.06;5028773;28;20061;-42
2023/10/08 02:18:30;;;;;;;5.65;3.22;;;15.70;53.10;;;17.49;41.74;98406.34;5045293;28;20045;-44
2023/10/08 02:20:59;;;;;;;8.07;3.30;;;15.70;53.70;;;17.42;42.22;98391.94;5030618;28;20038;-46
2023/10/08 02:23:27;;;;;;;5.13;2.38;;;15.60;54.20;;;17.37;42.22;98402.47;5012954;28;20374;-45
2023/10/08 02:25:55;;;;;;;6.75;3.05;;;15.50;54.40;;;17.32;42.47;98407.56;5022403;28;20041;-49
2023/10/08 02:28:24;;;;;;;6.10;3.22;;;15.50;54.70;;;17.27;42.31;98402.75;5030357;28;20085;-44
2023/10/08 02:30:52;;;;;;;5.03;2.53;;;15.40;54.30;;;17.22;42.50;98402.44;5029416;28;20049;-47
2023/10/08 02:33:20;;;;;;;5.85;2.80;;;15.40;54.70;;;17.17;42.82;98410.22;5028323;28;20045;-46
2023/10/08 02:35:49;;;;;;;4.40;2.70;;;15.30;55.20;;;17.14;42.86;98407.94;5028160;28;20102;-46
2023/10/08 02:38:18;;;;;;;5.55;2.53;;;15.30;55.30;;;17.09;42.91;98416.53;5032871;28;20616;-46
2023/10/08 02:40:49;;;;;;;5.03;2.97;;;15.20;55.30;;;17.05;42.95;98412.53;5033182;28;20049;-46
2023/10/08 02:43:17;;;;;;;4.38;2.65;;;15.20;55.60;;;17.00;42.98;98412.28;5017166;28;20048;-43
2023/10/08 02:45:52;;;;;;;7.40;2.63;;;15.20;55.70;;;16.96;43.14;98410.94;5033085;28;20045;-47
2023/10/08 02:48:20;;;;;;;5.07;2.67;;;15.10;55.90;;;16.92;43.27;98412.34;5032507;28;20041;-49
2023/10/08 02:50:48;;;;;;;4.65;2.78;;;15.00;56.00;;;16.87;43.50;98406.69;5032816;28;20061;-44
2023/10/08 02:53:20;;;;;;;6.90;3.15;;;15.00;56.40;;;16.82;43.62;98409.09;5032086;28;20049;-47
2023/10/08 02:55:49;;;;;;;6.43;2.60;;;14.90;56.40;;;16.79;43.63;98407.56;5033071;28;20524;-47
2023/10/08 02:58:20;;;;;;;5.53;3.00;;;14.90;56.70;;;16.75;43.67;98406.28;5048972;28;20772;-48
2023/10/08 03:00:49;;;;;;;7.57;3.17;;;14.90;56.80;;;16.72;44.00;98407.44;5032727;28;20178;-47
2023/10/08 03:03:18;;;;;;;6.25;2.92;;;14.80;57.30;;;16.69;44.17;98401.59;5032503;28;20053;-46
2023/10/08 03:05:52;;;;;;;4.78;2.47;;;14.80;57.60;;;16.65;44.22;98400.28;5032853;28;20353;-44
2023/10/08 03:08:20;;;;;;;7.00;2.95;;;14.70;58.30;;;16.63;44.37;98396.94;5032721;28;20037;-44
2023/10/08 03:10:55;;;;;;;5.38;3.03;;;14.70;58.00;;;16.62;44.53;98401.50;5033135;28;20064;-44
2023/10/08 03:13:26;;;;;;;5.72;2.83;;;14.70;58.30;;;16.62;44.29;98395.28;5032330;28;20060;-46
2023/10/08 03:18:35;;;;;;;5.57;2.88;;;14.80;57.90;;;16.57;44.50;98393.13;5032859;28;20088;-45
2023/10/08 03:21:19;;;;;;;5.72;2.45;;;14.80;58.10;;;16.54;45.02;98386.28;5025738;28;20049;-44
2023/10/08 03:23:51;;;;;;;4.68;2.88;;;14.70;58.90;;;16.52;44.92;98382.94;5032285;28;20053;-44
2023/10/08 03:29:06;;;;;;;5.18;2.92;;;14.70;59.00;;;16.54;45.23;98391.66;5024602;28;20053;-46
2023/10/08 03:34:18;;;;;;;4.28;2.90;;;14.80;58.60;;;16.63;45.32;98396.94;5017870;28;20054;-43
2023/10/08 03:36:49;;;;;;;5.60;2.58;;;14.90;58.60;;;16.66;45.08;98399.28;5033083;28;20049;-47
2023/10/08 03:39:18;;;;;;;6.32;2.53;;;15.00;58.40;;;16.67;45.15;98403.63;5032346;28;20152;-48
2023/10/08 03:42:05;;;;;;;5.93;3.03;;;15.00;58.50;;;16.69;45.39;98409.66;5032339;28;20052;-49
2023/10/08 03:44:37;;;;;;;5.35;2.80;;;15.00;58.50;;;16.67;45.27;98404.50;5033196;28;20045;-43
2023/10/08 03:47:10;;;;;;;7.10;3.33;;;15.00;58.70;;;16.66;45.43;98404.66;5032996;28;20045;-45
2023/10/08 03:49:45;;;;;;;6.15;3.03;;;14.90;59.10;;;16.64;45.55;98410.22;5032365;28;20046;-46
2023/10/08 03:52:13;;;;;;;4.90;2.70;;;14.90;59.10;;;16.62;45.70;98403.34;5033312;28;20378;-45
2023/10/08 03:54:48;;;;;;;8.57;2.92;;;14.90;59.10;;;16.60;45.62;98405.41;5032497;28;20049;-43
2023/10/08 03:57:34;;;;;;;6.28;2.83;;;14.90;59.50;;;16.57;45.96;98408.44;5031445;28;20141;-45
2023/10/08 04:00:07;;;;;;;4.72;2.22;;;14.80;60.00;;;16.53;45.66;98405.25;5025412;28;20497;-44
2023/10/08 04:02:46;;;;;;;6.13;3.08;;;14.70;60.20;;;16.48;46.24;98395.06;5032796;28;20057;-46
2023/10/08 04:05:21;;;;;;;5.22;3.28;;;14.70;60.90;;;16.47;45.95;98400.63;5032828;28;20049;-43
2023/10/08 04:13:08;;;;;;;6.75;2.50;;;14.60;60.80;;;16.40;46.21;98402.34;5031551;28;20049;-47
2023/10/08 04:15:43;;;;;;;5.95;2.97;;;14.60;60.80;;;16.39;46.24;98400.69;5033106;28;20052;-45
2023/10/08 04:18:13;;;;;;;5.72;2.90;;;14.60;61.00;;;16.36;46.35;98387.59;5032567;28;20057;-43
2023/10/08 04:21:00;;;;;;;6.80;3.00;;;14.60;61.70;;;16.33;46.66;98392.31;5032612;28;20046;-44
2023/10/08 04:23:29;;;;;;;6.57;3.15;;;14.50;61.70;;;16.31;46.45;98390.84;5032758;28;20044;-43
2023/10/08 04:25:57;;;;;;;5.55;2.95;;;14.50;62.00;;;16.29;46.91;98390.19;5032141;28;20069;-42
2023/10/08 04:28:28;;;;;;;6.95;2.85;;;14.40;62.20;;;16.28;46.82;98383.94;5030868;28;20042;-44
2023/10/08 04:31:14;;;;;;;4.53;2.47;;;14.40;61.90;;;16.27;47.12;98379.59;5032627;28;20060;-45
2023/10/08 04:33:44;;;;;;;5.78;3.13;;;14.50;62.00;;;16.27;46.58;98390.34;5032455;28;20049;-44
2023/10/08 04:36:17;;;;;;;5.55;2.80;;;14.50;61.60;;;16.29;46.44;98387.50;5032246;28;20049;-45
2023/10/08 04:38:48;;;;;;;5.63;2.75;;;14.60;60.50;;;16.28;46.48;98385.81;5032007;28;20057;-44
2023/10/08 04:41:19;;;;;;;5.82;2.95;;;14.50;60.20;;;16.28;46.30;98385.81;5031803;28;20046;-47
2023/10/08 04:43:49;;;;;;;5.00;2.60;;;14.50;60.40;;;16.27;46.19;98397.59;5032284;28;20045;-45
2023/10/08 04:46:33;;;;;;;6.95;2.75;;;14.50;60.30;;;16.26;46.25;98402.09;5032369;28;20412;-44
2023/10/08 04:49:05;;;;;;;4.70;2.88;;;14.50;60.10;;;16.26;46.43;98401.28;5032048;28;20053;-46
2023/10/08 04:51:43;;;;;;;4.28;2.88;;;14.50;60.60;;;16.22;46.64;98398.09;5032346;28;20410;-45
2023/10/08 04:54:18;;;;;;;5.20;2.67;;;14.40;61.40;;;16.18;46.64;98396.78;5024986;28;20042;-44
2023/10/08 04:56:49;;;;;;;6.30;2.80;;;14.40;61.50;;;16.16;46.32;98395.31;5031243;28;20054;-46
2023/10/08 04:59:22;;;;;;;7.50;3.22;;;14.30;60.90;;;16.11;46.39;98403.88;5029895;28;20049;-45
2023/10/08 05:16:02;;;;;;;4.82;2.55;;;14.30;60.90;;;16.05;46.65;98408.16;5031687;28;20518;-47
2023/10/08 05:18:54;;;;;;;7.15;3.17;;;14.30;61.20;;;16.03;46.72;98407.50;5026418;28;20053;-46
2023/10/08 05:21:40;;;;;;;6.47;3.25;;;14.20;61.20;;;16.03;46.46;98412.00;5025553;28;20045;-45
2023/10/08 05:24:08;;;;;;;5.90;3.20;;;14.30;61.10;;;16.01;46.70;98406.81;5022393;28;20040;-45
2023/10/08 05:26:44;;;;;;;4.05;2.83;;;14.20;61.00;;;15.98;47.03;98412.53;5030984;28;20045;-47
2023/10/08 05:29:39;;;;;;;5.55;2.70;;;14.20;62.20;;;15.93;47.09;98409.53;5030338;28;20044;-44
2023/10/08 05:32:37;;;;;;;5.38;2.88;;;14.10;62.60;;;15.91;47.14;98406.19;5031245;28;20050;-46
2023/10/08 05:35:30;;;;;;;5.25;2.25;;;14.10;62.60;;;15.90;47.11;98413.44;5030720;28;20042;-47
2023/10/08 05:37:41;;;;;;;6.30;3.10;;;14.00;62.40;;;15.87;47.34;98413.75;5030891;28;20045;-48
2023/10/08 05:40:32;;;;;;;6.47;3.92;;;14.10;62.70;;;15.87;47.56;98410.25;5023473;28;20037;-43
2023/10/08 05:43:13;;;;;;;6.22;3.17;;;14.00;63.20;;;15.85;47.65;98414.97;5031043;28;20045;-48
2023/10/08 05:45:52;;;;;;;7.78;3.05;;;14.00;63.50;;;15.84;47.75;98415.97;5029726;28;20049;-44
2023/10/08 05:48:27;;;;;;;5.07;2.78;;;14.00;63.50;;;15.84;47.81;98419.50;5024300;28;20045;-46
2023/10/08 05:50:57;;;;;;;5.05;2.90;;;14.00;63.70;;;15.86;47.84;98419.34;5030906;28;20042;-48
2023/10/08 05:53:43;;;;;;;9.30;3.53;;;14.00;63.60;;;15.87;47.96;98423.69;5031198;28;20159;-47
2023/10/08 05:56:28;;;;;;;5.03;2.92;;;14.10;63.60;;;15.86;47.82;98422.84;5023123;28;20100;-44
2023/10/08 05:59:17;;;;;;;4.40;2.72;;;14.10;63.80;;;15.88;48.10;98422.69;5029874;28;20056;-44
2023/10/08 06:01:46;;;;;;;5.18;2.67;;;14.10;64.10;;;15.87;48.39;98421.00;5030864;28;20045;-44
2023/10/08 06:07:16;;;;;;;5.38;3.13;;;14.10;64.40;;;15.88;48.36;98420.81;5030589;28;20492;-46
2023/10/08 06:10:01;;;;;;;5.70;2.80;;;14.10;64.10;;;15.90;48.49;98424.16;5029804;28;20060;-45
2023/10/08 06:12:44;;;;;;;5.55;3.15;;;14.20;65.10;;;15.90;48.56;98423.34;5025103;28;20048;-46
2023/10/08 06:15:12;;;;;;;6.20;3.17;;;14.20;64.10;;;15.92;48.35;98427.50;5030709;28;20052;-43
2023/10/08 06:18:04;;;;;;;5.32;2.90;;;14.20;64.30;;;15.92;48.57;98422.13;5030604;28;20045;-45
2023/10/08 06:20:36;;;;;;;10.32;4.72;;;14.20;64.50;;;15.92;48.58;98411.41;5025535;28;20042;-44
2023/10/08 06:23:07;;;;;;;5.40;2.63;;;14.20;65.20;;;15.91;49.07;98414.25;5030417;28;20045;-45
2023/10/08 06:25:44;;;;;;;5.32;2.97;;;14.20;65.50;;;15.96;49.16;98417.25;5030653;28;20097;-46
2023/10/08 06:28:20;;;;;;;5.18;3.10;;;14.30;65.60;;;15.99;49.22;98424.13;5030415;28;20041;-46
2023/10/08 06:30:49;;;;;;;5.65;3.70;;;14.30;65.70;;;16.02;49.00;98418.41;5030634;28;20049;-44
2023/10/08 06:33:17;;;;;;;5.45;2.90;;;14.40;65.00;;;16.05;48.92;98418.88;5029123;28;20050;-49
2023/10/08 06:36:01;;;;;;;8.93;3.38;;;14.40;64.70;;;16.08;48.60;98423.06;5030449;28;20117;-45
2023/10/08 06:38:33;;;;;;;4.60;2.92;;;14.40;63.70;;;16.11;48.58;98418.19;5017485;28;20523;-43
2023/10/08 06:41:09;;;;;;;7.28;3.10;;;14.50;63.90;;;16.16;48.29;98430.22;5029890;28;20390;-48
2023/10/08 06:43:38;;;;;;;6.60;3.30;;;14.50;62.90;;;16.20;48.17;98423.50;5028961;28;20524;-43
2023/10/08 06:46:12;;;;;;;6.47;3.10;;;14.60;62.50;;;16.23;48.36;98428.50;5029872;28;20115;-47
2023/10/08 06:48:42;;;;;;;9.07;3.38;;;14.70;63.00;;;16.26;48.26;98418.22;5028539;28;20053;-46
2023/10/08 06:51:13;;;;;;;7.70;3.45;;;14.70;62.80;;;16.30;48.25;98426.75;5028924;28;20524;-45
2023/10/08 06:53:42;;;;;;;5.10;2.90;;;14.70;62.50;;;16.36;48.44;98427.91;5030344;28;20098;-46
2023/10/08 06:56:12;;;;;;;5.75;3.22;;;14.80;62.50;;;16.40;48.21;98427.38;5029656;28;20041;-43
2023/10/08 06:58:45;;;;;;;9.90;4.47;;;14.90;62.40;;;16.45;48.29;98435.72;5029103;28;20048;-46
2023/10/08 07:01:13;;;;;;;10.27;3.55;;;14.90;62.20;;;16.52;48.16;98444.75;5029917;28;20049;-44
2023/10/08 07:03:41;;;;;;;6.35;3.75;;;15.00;62.20;;;16.56;48.12;98442.53;5030153;28;20049;-46
2023/10/08 07:06:25;;;;;;;8.00;3.75;;;15.10;62.30;;;16.59;48.34;98442.16;5030175;28;20041;-45
2023/10/08 07:08:58;;;;;;;5.78;3.22;;;15.10;62.20;;;16.67;48.21;98449.31;5029885;28;20421;-47
2023/10/08 07:11:27;;;;;;;6.55;3.00;;;15.20;62.00;;;16.70;48.05;98448.97;5029782;28;20045;-43
2023/10/08 07:13:55;;;;;;;5.75;3.10;;;15.20;62.00;;;16.77;48.20;98449.94;5026937;28;20049;-45
2023/10/08 07:16:23;;;;;;;12.02;3.13;;;15.30;61.80;;;16.84;48.16;98461.66;5030188;28;20112;-46
2023/10/08 07:18:55;;;;;;;5.72;3.10;;;15.40;61.60;;;16.93;48.25;98471.31;5029958;28;20053;-46
2023/10/08 07:21:29;;;;;;;6.72;3.63;;;15.60;61.60;;;17.01;48.35;98483.03;5022555;28;20041;-44
2023/10/08 07:23:57;;;;;;;7.18;4.38;;;15.70;61.50;;;17.10;48.43;98487.34;5031647;28;20053;-48
2023/10/08 07:26:26;;;;;;;9.60;5.10;;;15.80;61.80;;;17.19;48.55;98485.38;5032479;28;20048;-43
2023/10/08 07:28:54;;;;;;;7.80;4.95;;;16.00;61.80;;;17.28;48.71;98479.75;5033481;28;20037;-46
2023/10/08 07:31:24;;;;;;;6.47;3.58;;;16.10;61.80;;;17.36;48.43;98472.63;5033623;28;20416;-45
2023/10/08 07:36:49;;;;;;;4.22;3.03;;;16.20;61.20;;;17.51;48.63;98460.81;5026355;28;20049;-46
2023/10/08 07:41:54;;;;;;;7.35;3.80;;;16.40;61.60;;;17.68;48.54;98466.88;5033235;28;20385;-49
2023/10/08 07:44:23;;;;;;;7.13;3.42;;;16.50;61.50;;;17.76;48.67;98470.47;5025083;28;20045;-47
2023/10/08 07:46:55;;;;;;;5.53;2.78;;;16.60;61.60;;;17.82;48.36;98473.25;5031610;28;20049;-46
2023/10/08 07:49:29;;;;;;;7.47;2.90;;;16.70;61.20;;;17.85;48.05;98472.91;5033302;28;20033;-45
2023/10/08 07:52:01;;;;;;;5.90;2.72;;;16.70;60.30;;;17.93;47.98;98473.81;5033128;28;20068;-45
2023/10/08 07:54:28;;;;;;;6.72;2.85;;;16.80;60.10;;;17.97;47.82;98465.19;5033306;28;20056;-44
2023/10/08 07:57:08;;;;;;;7.97;2.50;;;16.80;59.90;;;18.00;47.81;98464.81;5033051;28;20405;-47
2023/10/08 07:59:39;;;;;;;6.10;2.35;;;16.80;60.00;;;18.03;47.57;98463.56;5033168;28;20041;-49
2023/10/08 08:02:12;;;;;;;5.78;2.58;;;16.80;59.60;;;18.03;47.60;98464.44;5032918;28;20156;-44
2023/10/08 08:04:43;;;;;;;6.35;2.83;;;16.80;59.70;;;18.07;47.56;98467.59;5032956;28;20060;-45
2023/10/08 08:07:15;;;;;;;5.72;3.58;;;16.90;59.80;;;18.10;47.67;98464.50;5033114;28;20052;-44
2023/10/08 08:09:50;;;;;;;9.27;2.60;;;16.90;60.00;;;18.11;47.78;98482.34;5032979;28;20459;-45
2023/10/08 08:12:21;;;;;;;5.95;2.85;;;16.90;60.00;;;18.17;47.87;98499.63;5031588;28;20534;-43
2023/10/08 08:14:51;;;;;;;4.10;2.50;;;16.90;60.30;;;18.18;47.79;98504.81;5032751;28;20050;-45
2023/10/08 08:17:19;;;;;;;4.38;2.28;;;16.90;60.30;;;18.22;47.60;98510.66;5032502;28;20041;-45
2023/10/08 08:19:51;;;;;;;6.95;3.38;;;17.00;60.20;;;18.26;47.65;98517.34;5032786;28;20041;-44
2023/10/08 08:22:21;;;;;;;4.75;2.58;;;17.00;60.10;;;18.30;47.67;98516.78;5032469;28;20108;-48
2023/10/08 08:24:54;;;;;;;6.15;3.25;;;17.10;60.00;;;18.36;47.71;98517.03;5032640;28;20041;-47
2023/10/08 08:27:31;;;;;;;6.40;2.88;;;17.20;59.90;;;18.42;48.03;98524.38;5024434;28;20049;-46
2023/10/08 08:30:15;;;;;;;4.47;3.05;;;17.20;60.80;;;18.49;47.98;98530.66;5032638;28;20042;-42
2023/10/08 08:32:47;;;;;;;6.68;3.42;;;17.30;60.40;;;18.54;47.45;98535.50;5026728;28;20493;-46
2023/10/08 08:35:20;;;;;;;5.03;2.78;;;17.50;58.90;;;18.60;47.24;98540.13;5031132;28;20312;-45
2023/10/08 08:37:49;;;;;;;5.03;2.63;;;17.60;58.50;;;18.65;47.21;98549.31;5032208;28;20493;-43
2023/10/08 08:40:24;;;;;;;4.28;2.75;;;17.70;58.30;;;18.76;46.87;98547.97;5032525;28;20052;-44
2023/10/08 08:42:52;;;;;;;6.55;2.70;;;17.80;57.70;;;18.85;46.50;98554.13;5033015;28;20052;-45
2023/10/08 08:45:26;;;;;;;5.30;2.88;;;18.00;56.10;;;18.98;46.52;98550.69;5031941;28;20049;-45
2023/10/08 08:47:55;;;;;;;;;;;18.10;56.80;;;19.03;46.26;98542.88;5032400;28;20386;-47
2023/10/08 08:50:23;;;;;;;9.55;3.80;;;18.20;55.50;;;19.21;46.09;98545.09;5030774;28;19925;-48
2023/10/08 08:52:51;;;;;;;5.35;3.25;;;18.20;56.20;;;19.19;45.90;98547.16;5032066;28;20040;-46
2023/10/08 08:55:20;;;;;;;7.10;2.85;;;18.30;55.70;;;19.30;45.74;98543.94;5031881;28;20042;-45
2023/10/08 08:57:50;;;;;;;4.28;3.08;;;18.40;55.90;;;19.33;45.65;98548.09;5031837;28;20041;-45
2023/10/08 09:00:20;;;;;;;5.30;3.08;;;18.50;55.80;;;19.39;45.78;98544.63;5030734;28;20034;-44
2023/10/08 09:02:49;;;;;;;5.68;3.03;;;18.50;55.80;;;19.43;45.44;98544.03;5031905;28;20046;-46
2023/10/08 09:05:24;;;;;;;5.68;3.28;;;18.50;55.70;;;19.54;45.66;98539.97;5031636;28;20042;-45
2023/10/08 09:08:06;;;;;;;6.00;2.90;;;18.60;56.10;;;19.60;45.54;98530.22;5031414;28;20390;-49
2023/10/08 09:10:37;;;;;;;6.35;3.67;;;18.60;56.20;;;19.64;45.74;98528.81;5024581;28;20041;-44
2023/10/08 09:13:09;;;;;;;7.88;3.17;;;18.70;55.90;;;19.69;45.84;98537.13;5030456;28;20053;-44
2023/10/08 09:15:37;;;;;;;5.57;2.92;;;18.80;55.90;;;19.79;45.95;98537.69;5030182;28;20508;-48
2023/10/08 09:18:06;;;;;;;5.60;2.80;;;18.80;56.30;;;19.87;45.85;98544.75;5031065;28;20374;-46
2023/10/08 09:20:43;;;;;;;7.03;2.83;;;18.90;56.50;;;19.90;45.70;98522.75;5031610;28;20038;-48
2023/10/08 09:23:17;;;;;;;7.60;3.50;;;18.90;56.10;;;19.98;45.59;98519.88;5030242;28;20063;-44
2023/10/08 09:26:02;;;;;;;5.90;3.20;;;19.00;56.40;;;20.06;45.82;98532.38;5031679;28;20493;-42
2023/10/08 09:28:34;;;;;;;5.70;2.80;;;19.00;56.20;;;20.06;45.47;98530.53;5031294;28;20496;-47
2023/10/08 09:31:04;;;;;;;7.00;3.63;;;19.30;55.50;;;20.21;45.15;98533.09;5031775;28;20037;-42
2023/10/08 09:33:33;;;;;;;4.80;3.00;;;19.30;55.40;;;20.33;44.98;98532.50;5023739;28;20496;-42
2023/10/08 09:36:05;;;;;;;6.43;3.40;;;19.40;55.40;;;20.40;44.64;98519.84;5031414;28;20041;-45
2023/10/08 09:38:33;;;;;;;7.28;3.60;;;19.50;54.70;;;20.49;44.47;98534.88;5023451;28;20044;-44
2023/10/08 09:41:02;;;;;;;5.45;3.45;;;19.60;53.90;;;20.53;44.08;98530.72;5030266;28;20049;-50
2023/10/08 09:43:34;;;;;;;4.90;2.95;;;19.70;53.20;;;20.66;44.22;98532.63;5031032;28;20420;-44
2023/10/08 09:46:21;;;;;;;5.95;2.85;;;19.80;53.20;;;20.75;44.16;98536.00;5030664;28;20041;-44
2023/10/08 09:48:52;;;;;;;6.97;3.33;;;19.80;52.20;;;20.84;43.65;98532.91;5023924;28;20489;-45
2023/10/08 09:51:21;;;;;;;6.28;3.33;;;19.90;52.90;;;20.89;42.98;98531.44;5030035;28;20041;-47
2023/10/08 09:54:15;;;;;;;7.18;3.83;;;20.00;52.00;;;20.97;43.41;98531.25;5031090;28;20051;-47
2023/10/08 09:56:44;;;;;;;;;;;20.10;50.60;;;21.08;43.40;98537.94;5023521;28;20037;-45
2023/10/08 09:59:14;;;;;;;5.57;3.05;;;20.20;50.40;;;21.18;42.86;98533.75;5031051;28;19921;-44
2023/10/08 10:01:44;;;;;;;5.57;3.15;;;20.20;52.30;;;21.23;41.80;98547.50;5029787;28;20052;-47
2023/10/08 10:04:13;;;;;;;7.63;3.17;;;20.40;48.30;;;21.35;41.75;98539.59;5029585;28;20559;-47
2023/10/08 10:06:44;;;;;;;8.05;3.33;;;20.60;49.10;;;21.45;41.11;98541.91;5012442;28;20045;-44
2023/10/08 10:09:24;;;;;;;6.70;3.90;;;20.70;48.00;;;21.35;38.87;98544.19;5030690;28;20044;-46
2023/10/08 10:11:54;;;;;;;5.88;3.00;;;20.90;44.30;;;21.30;38.78;98555.63;5030947;28;20045;-51
2023/10/08 10:14:26;;;;;;;9.50;3.97;;;21.00;44.10;;;21.32;39.38;98548.13;5030858;28;20052;-46
2023/10/08 10:17:20;;;;;;;8.63;4.33;;;21.10;44.60;;;21.43;38.53;98541.25;5030555;28;20049;-47
2023/10/08 10:20:13;;;;;;;7.53;4.10;;;21.10;43.50;;;21.51;38.89;98545.66;5027416;28;20045;-46
2023/10/08 10:22:43;;;;;;;6.03;3.70;;;21.10;44.30;;;21.48;39.27;98548.78;5023489;28;20045;-47
2023/10/08 10:25:16;;;;;;;8.20;3.45;;;21.10;44.20;;;21.45;38.44;98543.78;5030631;28;20037;-44
2023/10/08 10:27:51;;;;;;;6.30;5.13;;;21.10;43.90;;;21.53;37.38;98544.41;5013655;28;20042;-48
2023/10/08 10:30:19;;;;;;;8.02;4.20;;;21.00;42.20;;;21.66;38.80;98542.72;5030694;28;20045;-47
2023/10/08 10:32:54;;;;;;;5.90;3.40;;;21.00;45.00;;;21.78;39.84;98551.88;5028623;28;20046;-46
2023/10/08 10:35:23;;;;;;;7.32;3.05;;;21.00;46.30;;;21.71;40.14;98549.16;5029889;28;20041;-44
2023/10/08 10:37:55;;;;;;;5.80;3.05;;;21.00;47.00;;;21.84;40.07;98553.72;5030272;28;20408;-44
2023/10/08 10:40:39;;;;;;;5.97;3.50;;;21.10;47.70;;;21.91;40.45;98559.97;5030500;28;20052;-46
2023/10/08 10:43:15;;;;;;;8.00;4.38;;;21.10;48.00;;;21.95;39.81;98555.78;5029461;28;20071;-43
2023/10/08 10:45:44;;;;;;;5.68;3.10;;;21.20;47.20;;;22.04;39.74;98559.09;5023173;28;20054;-42
2023/10/08 10:56:29;;;;;;;7.03;3.67;;;21.30;46.50;;;22.17;39.27;98550.09;5030270;28;20057;-47
2023/10/08 10:59:15;;;;;;;5.00;3.63;;;21.30;46.00;;;22.15;39.38;98542.16;5033467;28;20076;-42
2023/10/08 11:01:54;;;;;;;9.38;3.50;;;21.30;46.30;;;22.11;39.27;98540.13;5027057;28;20049;-42
2023/10/08 11:04:28;;;;;;;5.60;3.60;;;21.30;46.10;;;22.17;39.56;98531.94;5034018;28;20072;-46
2023/10/08 11:07:00;;;;;;;8.00;3.50;;;21.30;47.00;;;22.21;39.60;98522.31;5033653;28;20034;-46
2023/10/08 11:09:44;;;;;;;4.88;3.42;;;21.40;47.10;;;22.19;39.51;98535.25;5032762;28;20516;-47
2023/10/08 11:12:18;;;;;;;11.95;4.30;;;21.50;46.80;;;22.08;38.76;98529.69;5032957;28;20060;-43
2023/10/08 11:14:47;;;;;;;8.43;3.33;;;21.60;44.00;;;22.27;39.11;98530.69;5027086;28;20038;-45
2023/10/08 11:17:28;;;;;;;8.02;3.42;;;21.50;45.70;;;22.38;38.71;98528.13;5032358;28;20049;-43
2023/10/08 11:19:57;;;;;;;6.70;3.35;;;21.70;45.10;;;22.44;38.30;98534.56;5034075;28;20041;-44
2023/10/08 11:22:44;;;;;;;7.38;4.05;;;21.70;44.00;;;22.34;37.19;98528.78;5032580;28;20445;-46
2023/10/08 11:25:27;;;;;;;7.68;4.10;;;21.90;41.40;;;22.47;37.55;98514.31;5033883;28;20042;-44
2023/10/08 11:28:01;;;;;;;7.35;4.20;;;21.80;42.50;;;22.56;37.69;98521.16;5026194;28;20041;-47
2023/10/08 11:30:31;;;;;;;7.78;3.78;;;21.80;43.90;;;22.65;37.32;98516.31;5032653;28;20053;-47
2023/10/08 11:32:59;;;;;;;9.15;3.47;;;22.00;42.40;;;22.61;36.58;98516.75;5033922;28;20029;-45
2023/10/08 11:35:28;;;;;;;8.80;4.45;;;22.10;40.70;;;22.75;36.56;98512.06;5033472;28;20072;-44